Time;durP1;ratioP1;P1;durP2;ratioP2;P2;SDS_P1;SDS_P2;PMS_P1;PMS_P2;Temp;Humidity;BMP_temperature;BMP_pressure;BME280_temperature;BME280_humidity;BME280_pressure;Samples;Min_cycle;Max_cycle;Signal;HPM_P1;HPM_P2
2022/12/13 00:01:50;;;;;;;18.90;17.20;;;;;;;-3.60;96.41;97179.58;106769;1305;22213;-85
2022/12/13 00:04:21;;;;;;;19.10;17.30;;;;;;;-3.62;96.31;97176.45;106766;1306;22028;-85
2022/12/13 00:06:49;;;;;;;18.50;16.60;;;;;;;-3.63;96.41;97171.45;106497;1312;22177;-85
2022/12/13 00:09:18;;;;;;;20.40;18.50;;;;;;;-3.66;96.42;97171.58;106553;1312;22190;-83
2022/12/13 00:11:47;;;;;;;19.00;17.20;;;;;;;-3.68;96.36;97171.48;106781;1305;22174;-84
2022/12/13 00:14:15;;;;;;;19.60;17.90;;;;;;;-3.68;96.37;97169.52;106449;1313;22908;-83
2022/12/13 00:16:45;;;;;;;18.20;16.60;;;;;;;-3.69;96.31;97175.25;106527;1312;22120;-85
2022/12/13 00:19:15;;;;;;;20.80;18.80;;;;;;;-3.71;96.19;97170.50;106773;1295;22185;-85
2022/12/13 00:21:43;;;;;;;19.00;17.30;;;;;;;-3.76;96.07;97174.02;106766;1301;22193;-83
2022/12/13 00:24:11;;;;;;;18.40;16.70;;;;;;;-3.75;96.50;97177.09;106551;1313;22182;-86
2022/12/13 00:26:39;;;;;;;19.00;17.20;;;;;;;-3.72;96.55;97176.60;106529;1312;22270;-85
2022/12/13 00:29:07;;;;;;;19.80;18.00;;;;;;;-3.73;96.26;97173.46;106305;1312;22072;-85
2022/12/13 00:31:35;;;;;;;19.90;18.10;;;;;;;-3.75;96.30;97172.52;106503;1310;22256;-86
2022/12/13 00:34:24;;;;;;;18.50;16.80;;;;;;;-3.75;96.26;97172.52;106668;1300;22159;-85
2022/12/13 00:36:53;;;;;;;18.30;16.50;;;;;;;-3.75;96.31;97172.55;106275;1313;22212;-85
2022/12/13 00:39:21;;;;;;;20.10;18.20;;;;;;;-3.74;96.36;97175.98;106682;1305;22156;-85
2022/12/13 00:41:49;;;;;;;20.80;18.80;;;;;;;-3.71;96.59;97181.77;106642;1290;22291;-86
2022/12/13 00:44:18;;;;;;;20.10;18.20;;;;;;;-3.75;96.17;97185.10;106696;1305;22028;-85
2022/12/13 00:46:46;;;;;;;21.30;19.30;;;;;;;-3.79;96.10;97196.83;106518;1310;22229;-84
2022/12/13 00:49:14;;;;;;;21.50;19.40;;;;;;;-3.79;96.31;97197.80;106782;1305;22097;-85
2022/12/13 00:51:43;;;;;;;20.90;19.00;;;;;;;-3.75;96.18;97198.63;106513;1311;22210;-84
2022/12/13 00:54:11;;;;;;;20.40;18.60;;;;;;;-3.77;96.11;97208.02;106512;1312;22147;-85
2022/12/13 00:56:39;;;;;;;18.40;16.70;;;;;;;-3.81;96.09;97207.38;106442;1312;22080;-84
2022/12/13 00:59:08;;;;;;;18.00;16.40;;;;;;;-3.82;96.15;97206.67;106793;1294;22807;-86
2022/12/13 01:01:36;;;;;;;19.70;17.80;;;;;;;-3.81;96.18;97204.52;106808;1304;22060;-85
2022/12/13 01:04:05;;;;;;;20.90;18.90;;;;;;;-3.81;96.20;97206.58;106561;1312;22306;-85
2022/12/13 01:06:37;;;;;;;19.50;17.70;;;;;;;-3.79;95.95;97209.15;106561;1306;22247;-84
2022/12/13 01:09:11;;;;;;;19.90;18.10;;;;;;;-3.87;95.85;97210.46;106873;1305;22100;-84
2022/12/13 01:11:39;;;;;;;18.60;16.90;;;;;;;-3.88;95.99;97215.42;106776;1295;22581;-85
2022/12/13 01:14:07;;;;;;;19.50;17.60;;;;;;;-3.84;96.10;97212.45;106775;1304;22204;-85
2022/12/13 01:16:36;;;;;;;17.60;16.00;;;;;;;-3.83;95.80;97218.02;106497;1310;22190;-84
2022/12/13 01:19:04;;;;;;;18.30;16.50;;;;;;;-3.88;95.82;97213.04;106770;1293;22078;-85
2022/12/13 01:21:32;;;;;;;17.40;15.70;;;;;;;-3.95;95.30;97216.32;106290;1312;22226;-85
2022/12/13 01:24:03;;;;;;;15.60;14.20;;;;;;;-3.99;95.00;97212.16;106521;1312;22322;-85
2022/12/13 01:26:32;;;;;;;15.90;14.40;;;;;;;-4.06;94.86;97218.85;106604;1306;22089;-84
2022/12/13 01:29:01;;;;;;;16.00;14.50;;;;;;;-4.08;95.16;97213.65;106788;1304;22214;-84
2022/12/13 01:31:29;;;;;;;17.30;15.70;;;;;;;-4.10;94.93;97214.45;106498;1312;22202;-85
2022/12/13 01:33:57;;;;;;;16.90;15.20;;;;;;;-4.14;94.62;97218.02;106486;1312;22262;-85
2022/12/13 01:36:25;;;;;;;14.30;13.10;;;;;;;-4.18;94.58;97215.63;106276;1313;22048;-84
2022/12/13 01:38:55;;;;;;;15.40;14.10;;;;;;;-4.19;94.49;97218.39;106478;1312;22182;-83
2022/12/13 01:41:27;;;;;;;15.40;14.10;;;;;;;-4.19;94.61;97216.66;106482;1312;22930;-85
2022/12/13 01:43:59;;;;;;;17.10;15.60;;;;;;;-4.19;94.30;97211.52;106577;1306;22927;-83
2022/12/13 01:46:30;;;;;;;17.10;15.60;;;;;;;-4.22;94.34;97225.06;106502;1312;22254;-83
2022/12/13 01:49:04;;;;;;;16.90;15.40;;;;;;;-4.24;94.22;97227.52;106602;1285;22880;-83
2022/12/13 01:51:55;;;;;;;15.00;13.70;;;;;;;-4.24;94.11;97220.56;106498;1298;22167;-85
2022/12/13 01:54:32;;;;;;;15.90;14.50;;;;;;;-4.24;94.41;97227.04;106513;1312;22888;-83
2022/12/13 01:57:04;;;;;;;16.10;14.80;;;;;;;-4.24;94.00;97226.63;106561;1311;22176;-85
2022/12/13 01:59:34;;;;;;;16.20;14.80;;;;;;;-4.26;94.08;97227.06;106269;1308;22243;-84
2022/12/13 02:02:04;;;;;;;17.20;15.60;;;;;;;-4.27;94.19;97225.17;106765;1297;22042;-84
2022/12/13 02:04:59;;;;;;;16.10;14.50;;;;;;;-4.25;93.89;97224.34;106778;1304;22909;-85
2022/12/13 02:07:31;;;;;;;15.80;14.40;;;;;;;-4.32;93.72;97227.00;106376;1312;22091;-84
2022/12/13 02:10:03;;;;;;;15.90;14.40;;;;;;;-4.34;93.98;97236.77;106388;1313;22956;-85
2022/12/13 02:12:32;;;;;;;15.60;14.20;;;;;;;-4.32;93.89;97240.29;106434;1313;22173;-86
2022/12/13 02:15:06;;;;;;;15.50;14.00;;;;;;;-4.35;93.77;97240.80;106406;1312;22269;-85
2022/12/13 02:17:59;;;;;;;16.60;15.00;;;;;;;-4.35;94.23;97237.00;106239;1312;23009;-85
2022/12/13 02:21:08;;;;;;;17.10;15.60;;;;;;;-4.31;94.51;97235.66;106607;1292;22163;-85
2022/12/13 02:23:57;;;;;;;17.80;16.30;;;;;;;-4.31;94.27;97238.48;106346;1305;22242;-85
2022/12/13 02:26:40;;;;;;;16.50;15.00;;;;;;;-4.32;94.14;97241.50;106479;1312;22052;-86
2022/12/13 02:29:23;;;;;;;16.60;15.10;;;;;;;-4.35;94.24;97237.00;106691;1305;22186;-85
2022/12/13 02:32:17;;;;;;;15.80;14.30;;;;;;;-4.32;94.26;97243.39;106770;1305;22219;-85
2022/12/13 02:35:00;;;;;;;15.50;14.00;;;;;;;-4.32;94.33;97236.36;106530;1312;22280;-85
2022/12/13 02:37:40;;;;;;;16.30;14.90;;;;;;;-4.32;94.20;97241.04;106573;1312;22180;-85
2022/12/13 02:40:20;;;;;;;15.80;14.30;;;;;;;-4.33;94.23;97244.54;106800;1291;22878;-83
2022/12/13 02:43:00;;;;;;;18.90;17.10;;;;;;;-4.34;94.26;97242.29;106549;1298;22205;-84
2022/12/13 02:45:46;;;;;;;19.20;17.40;;;;;;;-4.35;94.27;97242.38;106567;1311;22909;-85
2022/12/13 02:48:21;;;;;;;14.30;12.80;;;;;;;-4.32;94.35;97244.24;106813;1305;22154;-86
2022/12/13 02:50:51;;;;;;;15.40;13.90;;;;;;;-4.33;94.04;97245.14;106566;1311;22191;-85
2022/12/13 02:53:22;;;;;;;12.90;11.70;;;;;;;-4.35;93.98;97249.17;106809;1304;22861;-85
2022/12/13 02:55:50;;;;;;;12.90;11.80;;;;;;;-4.34;94.03;97248.02;106550;1312;22231;-86
2022/12/13 02:58:22;;;;;;;13.70;12.40;;;;;;;-4.33;93.86;97247.52;106546;1304;22210;-84
2022/12/13 03:00:53;;;;;;;13.80;12.60;;;;;;;-4.36;93.99;97248.39;106720;1305;22165;-85
2022/12/13 03:03:40;;;;;;;13.10;11.90;;;;;;;-4.36;94.08;97246.96;106553;1305;22864;-85
2022/12/13 03:06:53;;;;;;;14.80;13.30;;;;;;;-4.33;94.18;97247.61;106642;1304;22157;-84
2022/12/13 03:09:42;;;;;;;15.40;14.00;;;;;;;-4.32;94.24;97245.33;106468;1305;22166;-85
2022/12/13 03:15:19;;;;;;;13.70;12.10;;;;;;;-4.31;94.73;97248.58;106446;1298;22658;-85
2022/12/13 03:17:54;;;;;;;15.00;13.60;;;;;;;-4.26;94.59;97247.30;106701;1291;22858;-85
2022/12/13 03:20:23;;;;;;;;;;;;;;;-4.26;94.47;97247.83;106436;1312;22393;-85
2022/12/13 03:22:53;;;;;;;17.20;15.60;;;;;;;-4.30;94.56;97249.23;106679;1289;22048;-85
2022/12/13 03:25:23;;;;;;;16.20;14.70;;;;;;;-4.31;94.53;97251.92;106705;1302;22881;-85
2022/12/13 03:28:00;;;;;;;18.20;16.10;;;;;;;-4.33;94.44;97252.19;106303;1307;22071;-85
2022/12/13 03:30:32;;;;;;;19.90;17.90;;;;;;;-4.31;94.69;97255.32;106634;1313;22204;-83
2022/12/13 03:33:00;;;;;;;18.30;16.40;;;;;;;-4.30;94.95;97254.59;107024;1291;22181;-86
2022/12/13 03:35:29;;;;;;;18.90;17.10;;;;;;;-4.32;94.81;97259.01;106805;1310;22107;-83
2022/12/13 03:38:02;;;;;;;17.40;15.90;;;;;;;-4.32;94.67;97262.34;106281;1312;22219;-85
2022/12/13 03:40:32;;;;;;;17.80;16.10;;;;;;;-4.31;94.77;97261.46;106696;1305;22045;-85
2022/12/13 03:43:00;;;;;;;17.80;16.20;;;;;;;-4.26;94.88;97264.05;106741;1297;22306;-85
2022/12/13 03:45:28;;;;;;;18.60;16.90;;;;;;;-4.21;94.79;97265.98;106646;1291;22187;-86
2022/12/13 03:47:56;;;;;;;19.90;18.10;;;;;;;-4.17;94.97;97269.20;106535;1312;22080;-85
2022/12/13 03:50:24;;;;;;;19.00;17.40;;;;;;;-4.18;95.00;97272.89;106611;1297;22910;-85
2022/12/13 03:52:58;;;;;;;20.10;18.20;;;;;;;-4.18;95.03;97270.35;106473;1312;22202;-84
2022/12/13 03:55:27;;;;;;;18.40;16.70;;;;;;;-4.20;94.78;97268.58;106500;1312;22108;-83
2022/12/13 03:57:55;;;;;;;19.50;17.70;;;;;;;-4.19;94.88;97270.48;106228;1312;22171;-83
2022/12/13 04:00:23;;;;;;;25.80;23.50;;;;;;;-4.23;94.94;97268.27;106639;1297;22191;-84
2022/12/13 04:02:51;;;;;;;24.30;21.60;;;;;;;-4.27;95.15;97274.02;106673;1305;22214;-84
2022/12/13 04:05:19;;;;;;;27.30;23.50;;;;;;;-4.30;94.95;97268.83;106417;1312;22253;-84
2022/12/13 04:07:47;;;;;;;20.00;17.60;;;;;;;-4.28;94.95;97269.90;106686;1305;22245;-84
2022/12/13 04:10:15;;;;;;;19.50;17.60;;;;;;;-4.29;95.28;97270.48;106465;1312;22261;-85
2022/12/13 04:15:47;;;;;;;17.90;16.30;;;;;;;-4.36;95.33;97274.48;106652;1305;22881;-84
2022/12/13 04:18:17;;;;;;;17.10;15.60;;;;;;;-4.37;95.27;97274.98;106412;1312;22203;-84
2022/12/13 04:20:46;;;;;;;18.20;16.50;;;;;;;-4.34;95.35;97277.80;106234;1312;22115;-84
2022/12/13 04:23:14;;;;;;;20.90;19.00;;;;;;;-4.31;95.24;97275.56;106256;1310;22251;-84
2022/12/13 04:25:43;;;;;;;22.70;20.40;;;;;;;-4.30;95.30;97279.59;106223;1313;22912;-84
2022/12/13 04:28:11;;;;;;;21.50;19.30;;;;;;;-4.35;95.18;97283.04;106654;1291;22781;-85
2022/12/13 04:30:52;;;;;;;20.80;19.00;;;;;;;-4.35;95.54;97282.14;106484;1304;22817;-84
2022/12/13 04:33:22;;;;;;;23.70;21.70;;;;;;;-4.32;95.42;97280.78;106292;1313;22130;-86
2022/12/13 04:35:50;;;;;;;25.90;23.70;;;;;;;-4.35;95.54;97280.42;106420;1313;22202;-85
2022/12/13 04:38:18;;;;;;;30.00;27.20;;;;;;;-4.34;95.48;97280.13;106460;1312;22323;-84
2022/12/13 04:40:46;;;;;;;31.70;29.00;;;;;;;-4.34;95.35;97279.06;106644;1305;22851;-84
2022/12/13 04:43:14;;;;;;;31.00;28.40;;;;;;;-4.34;95.35;97281.48;106432;1312;22190;-85
2022/12/13 04:45:42;;;;;;;33.00;30.00;;;;;;;-4.30;95.71;97282.44;106414;1298;22087;-84
2022/12/13 04:48:10;;;;;;;33.70;30.80;;;;;;;-4.31;95.62;97282.04;106236;1312;22355;-86
2022/12/13 04:50:38;;;;;;;32.10;29.30;;;;;;;-4.31;95.50;97280.83;106682;1297;22196;-85
2022/12/13 04:53:06;;;;;;;32.70;30.00;;;;;;;-4.34;95.54;97281.12;106612;1290;22206;-84
2022/12/13 04:55:36;;;;;;;28.50;26.20;;;;;;;-4.36;95.65;97281.06;106548;1290;22249;-84
2022/12/13 04:58:04;;;;;;;24.60;22.60;;;;;;;-4.37;95.73;97282.56;106306;1312;22981;-84
2022/12/13 05:00:33;;;;;;;26.90;24.70;;;;;;;-4.36;95.72;97285.68;106396;1312;22253;-83
2022/12/13 05:03:01;;;;;;;29.30;27.00;;;;;;;-4.36;95.68;97286.89;106674;1298;22919;-84
2022/12/13 05:05:28;;;;;;;35.60;32.40;;;;;;;-4.42;95.57;97283.63;106407;1312;22925;-85
2022/12/13 05:07:56;;;;;;;39.60;36.20;;;;;;;-4.44;95.45;97286.33;106652;1305;22156;-83
2022/12/13 05:10:24;;;;;;;32.10;29.50;;;;;;;-4.44;95.53;97284.02;106670;1291;23032;-85
2022/12/13 05:13:04;;;;;;;27.60;25.30;;;;;;;-4.43;95.63;97282.47;106702;1305;22193;-85
2022/12/13 05:15:33;;;;;;;27.30;25.00;;;;;;;-4.45;95.87;97287.84;106695;1295;22334;-84
2022/12/13 05:18:03;;;;;;;28.90;26.60;;;;;;;-4.48;95.73;97283.94;106559;1312;22195;-84
2022/12/13 05:20:38;;;;;;;30.70;28.10;;;;;;;-4.50;95.55;97286.27;106797;1300;22235;-84
2022/12/13 05:23:06;;;;;;;33.70;30.90;;;;;;;-4.51;95.42;97289.27;106665;1303;22853;-84
2022/12/13 05:25:35;;;;;;;27.90;25.30;;;;;;;-4.55;95.48;97292.64;106649;1305;22157;-83
2022/12/13 05:28:04;;;;;;;29.40;26.80;;;;;;;-4.53;95.74;97292.20;106457;1312;22109;-85
2022/12/13 05:30:54;;;;;;;30.70;28.10;;;;;;;-4.50;95.92;97294.68;106493;1305;22156;-85
2022/12/13 05:33:22;;;;;;;35.40;32.40;;;;;;;-4.49;95.78;97295.77;106748;1291;22938;-84
2022/12/13 05:35:51;;;;;;;46.70;41.40;;;;;;;-4.48;95.58;97296.03;106445;1307;22188;-84
2022/12/13 05:38:27;;;;;;;41.60;35.60;;;;;;;-4.52;95.49;97297.86;106412;1313;22215;-84
2022/12/13 05:40:55;;;;;;;30.30;27.30;;;;;;;-4.52;95.67;97297.66;106636;1305;22174;-84
2022/12/13 05:43:23;;;;;;;33.90;30.20;;;;;;;-4.49;95.77;97298.80;106530;1311;22163;-83
2022/12/13 05:46:11;;;;;;;31.90;28.50;;;;;;;-4.49;95.75;97302.16;106769;1288;22074;-84
2022/12/13 05:48:40;;;;;;;31.80;28.50;;;;;;;-4.50;95.86;97299.98;106689;1305;22185;-85
2022/12/13 05:51:10;;;;;;;25.20;23.10;;;;;;;-4.52;95.77;97299.15;106772;1286;22179;-85
2022/12/13 05:53:40;;;;;;;22.80;20.70;;;;;;;-4.54;95.59;97302.85;106433;1312;22181;-84
2022/12/13 05:56:10;;;;;;;23.70;21.60;;;;;;;-4.53;95.80;97298.50;106475;1313;22212;-83
2022/12/13 05:58:39;;;;;;;32.80;30.00;;;;;;;-4.52;95.96;97298.66;106457;1312;22224;-83
2022/12/13 06:01:11;;;;;;;33.00;30.20;;;;;;;-4.47;95.92;97301.69;106665;1297;22874;-85
2022/12/13 06:03:40;;;;;;;34.30;31.20;;;;;;;-4.50;95.72;97303.46;106654;1297;22157;-85
2022/12/13 06:06:09;;;;;;;38.80;35.40;;;;;;;-4.55;95.60;97302.40;106572;1305;22148;-84
2022/12/13 06:08:38;;;;;;;35.50;32.30;;;;;;;-4.52;95.86;97306.44;106576;1292;22167;-85
2022/12/13 06:11:07;;;;;;;41.60;37.70;;;;;;;-4.53;95.99;97307.41;106535;1306;22183;-84
2022/12/13 06:13:42;;;;;;;49.60;44.40;;;;;;;-4.57;96.16;97307.28;106459;1312;22215;-84
2022/12/13 06:16:12;;;;;;;39.40;35.50;;;;;;;-4.61;95.96;97309.18;106632;1298;22142;-84
2022/12/13 06:18:52;;;;;;;31.60;28.40;;;;;;;-4.62;95.94;97313.19;106647;1281;22185;-85
2022/12/13 06:21:32;;;;;;;33.30;29.90;;;;;;;-4.64;96.00;97320.11;106669;1305;22058;-84
2022/12/13 06:24:17;;;;;;;36.80;33.20;;;;;;;-4.64;96.33;97320.61;106574;1305;22172;-85
2022/12/13 06:26:46;;;;;;;41.20;37.60;;;;;;;-4.63;96.25;97320.89;106467;1312;22180;-84
2022/12/13 06:29:16;;;;;;;35.10;31.70;;;;;;;-4.66;96.03;97324.27;106638;1305;22182;-85
2022/12/13 06:31:56;;;;;;;34.90;31.30;;;;;;;-4.67;96.06;97324.39;106689;1305;22108;-84
2022/12/13 06:34:34;;;;;;;36.40;32.80;;;;;;;-4.69;96.17;97326.33;106250;1312;22158;-85
2022/12/13 06:37:05;;;;;;;41.50;37.70;;;;;;;-4.68;96.20;97323.19;106491;1312;22184;-84
2022/12/13 06:39:34;;;;;;;42.30;38.40;;;;;;;-4.70;96.26;97326.08;106336;1312;22385;-85
2022/12/13 06:42:04;;;;;;;39.10;35.40;;;;;;;-4.73;95.98;97328.82;106511;1312;22157;-83
2022/12/13 06:44:33;;;;;;;32.40;29.20;;;;;;;-4.76;96.20;97329.93;106627;1305;22171;-83
2022/12/13 06:47:04;;;;;;;33.90;30.80;;;;;;;-4.75;96.14;97333.19;106633;1297;22770;-84
2022/12/13 06:49:41;;;;;;;35.60;32.20;;;;;;;-4.74;96.21;97333.59;106531;1304;22192;-84
2022/12/13 06:52:12;;;;;;;40.60;36.60;;;;;;;-4.75;96.39;97335.22;106690;1305;22139;-85
2022/12/13 06:54:41;;;;;;;37.70;34.10;;;;;;;-4.77;95.98;97341.05;106703;1298;22151;-84
2022/12/13 06:57:11;;;;;;;36.70;33.20;;;;;;;-4.80;95.98;97342.34;106448;1312;22191;-84
2022/12/13 06:59:39;;;;;;;33.00;29.90;;;;;;;-4.77;96.26;97346.32;106240;1312;22294;-85
2022/12/13 07:02:08;;;;;;;30.10;27.10;;;;;;;-4.77;96.21;97348.66;106547;1300;22248;-83
2022/12/13 07:04:53;;;;;;;36.20;32.60;;;;;;;-4.77;95.90;97349.63;106484;1312;22200;-85
2022/12/13 07:07:23;;;;;;;32.90;29.90;;;;;;;-4.78;95.77;97349.08;106679;1305;22198;-85
2022/12/13 07:09:52;;;;;;;34.00;30.80;;;;;;;-4.77;95.81;97347.81;106663;1297;23008;-85
2022/12/13 07:12:20;;;;;;;37.70;34.20;;;;;;;-4.73;96.18;97351.38;106674;1297;22162;-85
2022/12/13 07:14:48;;;;;;;37.20;33.60;;;;;;;-4.69;96.00;97352.41;106494;1312;22098;-84
2022/12/13 07:17:16;;;;;;;34.50;31.20;;;;;;;-4.70;95.92;97357.62;106504;1312;22242;-83
2022/12/13 07:20:06;;;;;;;37.30;33.70;;;;;;;-4.72;95.60;97361.36;106615;1305;22238;-85
2022/12/13 07:22:36;;;;;;;33.70;30.40;;;;;;;-4.71;95.84;97366.81;106677;1297;22203;-83
2022/12/13 07:25:14;;;;;;;37.00;33.40;;;;;;;-4.66;96.12;97364.50;106703;1297;22067;-84
2022/12/13 07:28:06;;;;;;;36.70;33.30;;;;;;;-4.64;95.97;97362.56;106592;1300;22894;-85
2022/12/13 07:30:38;;;;;;;37.80;34.30;;;;;;;-4.61;96.02;97363.13;106513;1312;22257;-82
2022/12/13 07:33:08;;;;;;;33.50;30.20;;;;;;;-4.61;95.68;97365.23;106489;1305;176605;-84
2022/12/13 07:35:37;;;;;;;31.20;28.10;;;;;;;-4.59;95.68;97368.58;106665;1294;22248;-84
2022/12/13 07:38:06;;;;;;;34.10;30.80;;;;;;;-4.56;95.72;97371.43;106575;1293;22802;-83
2022/12/13 07:40:36;;;;;;;32.60;29.60;;;;;;;-4.55;95.67;97370.20;106717;1288;22806;-83
2022/12/13 07:43:05;;;;;;;33.20;29.90;;;;;;;-4.56;95.41;97373.49;106483;1312;22094;-85
2022/12/13 07:45:33;;;;;;;29.00;26.20;;;;;;;-4.58;95.50;97376.17;106755;1305;22250;-84
2022/12/13 07:48:05;;;;;;;30.20;27.00;;;;;;;-4.55;95.72;97380.48;106477;1312;22164;-85
2022/12/13 07:50:33;;;;;;;31.20;28.10;;;;;;;-4.53;95.65;97378.59;106455;1304;22215;-84
2022/12/13 07:53:07;;;;;;;31.20;28.30;;;;;;;-4.51;95.66;97383.68;106512;1311;22823;-84
2022/12/13 07:55:36;;;;;;;32.30;29.40;;;;;;;-4.48;95.83;97386.40;106564;1312;22330;-83
2022/12/13 07:58:10;;;;;;;27.90;25.20;;;;;;;-4.47;95.39;97387.90;106386;1312;22219;-84
2022/12/13 08:00:39;;;;;;;;;;;;;;;-4.50;95.33;97391.65;106683;1290;23010;-84
2022/12/13 08:03:14;;;;;;;29.10;26.40;;;;;;;-4.48;95.32;97386.98;106527;1312;22207;-84
2022/12/13 08:06:00;;;;;;;32.30;28.90;;;;;;;-4.47;95.37;97387.82;106759;1288;22169;-84
2022/12/13 08:08:29;;;;;;;31.20;28.20;;;;;;;-4.48;95.32;97389.56;106501;1312;22206;-84
2022/12/13 08:11:04;;;;;;;27.10;24.40;;;;;;;-4.45;95.41;97389.02;106752;1297;22231;-84
2022/12/13 08:13:33;;;;;;;30.30;27.40;;;;;;;-4.39;95.50;97386.02;106514;1311;22080;-83
2022/12/13 08:16:05;;;;;;;32.10;29.00;;;;;;;-4.34;95.35;97386.00;106510;1311;23068;-82
2022/12/13 08:18:52;;;;;;;34.50;31.30;;;;;;;-4.31;95.42;97382.99;106749;1305;22194;-82
2022/12/13 08:21:35;;;;;;;32.10;28.90;;;;;;;-4.28;95.42;97383.05;106528;1312;22225;-83
2022/12/13 08:24:25;;;;;;;29.30;26.50;;;;;;;-4.19;95.18;97387.05;106696;1291;23393;-83
2022/12/13 08:26:56;;;;;;;31.00;28.00;;;;;;;-4.22;95.20;97395.98;106724;1303;22245;-84
2022/12/13 08:29:24;;;;;;;35.60;32.00;;;;;;;-4.24;95.38;97401.17;106737;1305;22217;-83
2022/12/13 08:32:08;;;;;;;32.20;29.10;;;;;;;-4.25;94.81;97400.90;106694;1305;22160;-83
2022/12/13 08:34:37;;;;;;;32.40;29.40;;;;;;;-4.30;94.98;97398.48;106259;1307;22207;-83
2022/12/13 08:37:05;;;;;;;30.20;27.40;;;;;;;-4.31;94.97;97400.83;106592;1296;22228;-84
2022/12/13 08:39:35;;;;;;;34.40;31.30;;;;;;;-4.29;95.25;97402.75;106485;1312;22308;-82
2022/12/13 08:42:14;;;;;;;36.70;33.20;;;;;;;-4.29;95.02;97409.27;106427;1312;22932;-84
2022/12/13 08:44:47;;;;;;;34.60;31.30;;;;;;;-4.27;94.90;97412.29;106460;1299;22240;-84
2022/12/13 08:47:16;;;;;;;36.00;32.50;;;;;;;-4.26;94.68;97415.64;106479;1307;22323;-84
2022/12/13 08:49:58;;;;;;;33.20;30.00;;;;;;;-4.22;95.14;97412.98;106442;1312;22252;-84
2022/12/13 08:52:31;;;;;;;43.50;39.00;;;;;;;-4.16;95.28;97417.86;106450;1305;22525;-86
2022/12/13 08:55:09;;;;;;;44.80;40.50;;;;;;;-4.17;94.56;97418.35;106636;1290;22814;-83
2022/12/13 08:57:39;;;;;;;35.80;32.50;;;;;;;-4.19;94.18;97416.95;106261;1313;22071;-82
2022/12/13 09:00:14;;;;;;;35.10;31.70;;;;;;;-4.20;94.34;97421.30;106472;1312;22930;-82
2022/12/13 09:02:42;;;;;;;32.40;29.40;;;;;;;-4.19;94.10;97418.09;106458;1312;22848;-82
2022/12/13 09:05:11;;;;;;;35.50;32.30;;;;;;;-4.20;93.98;97410.50;106369;1312;22219;-82
2022/12/13 09:08:01;;;;;;;36.30;32.90;;;;;;;-4.19;93.91;97413.75;106295;1312;22897;-81
2022/12/13 09:10:30;;;;;;;55.80;36.50;;;;;;;-4.13;94.16;97414.46;106670;1297;22904;-82
2022/12/13 09:13:05;;;;;;;33.90;30.80;;;;;;;-4.00;93.92;97414.92;106363;1312;22290;-82
2022/12/13 09:15:53;;;;;;;28.00;25.50;;;;;;;-3.94;93.34;97424.01;106607;1294;22177;-83
2022/12/13 09:18:28;;;;;;;28.40;25.80;;;;;;;-3.95;92.98;97417.29;106665;1305;22142;-82
2022/12/13 09:21:08;;;;;;;22.00;20.00;;;;;;;-3.91;92.32;97418.20;106549;1305;22163;-83
2022/12/13 09:23:42;;;;;;;27.70;25.20;;;;;;;-3.87;91.80;97415.45;106358;1312;22249;-82
2022/12/13 09:26:15;;;;;;;30.10;27.30;;;;;;;-3.90;91.40;97417.58;106496;1312;22216;-82
2022/12/13 09:28:43;;;;;;;23.70;21.60;;;;;;;-3.91;91.96;97413.94;106273;1313;22904;-81
2022/12/13 09:31:16;;;;;;;25.80;23.50;;;;;;;-3.91;90.61;97414.19;106473;1312;23053;-82
2022/12/13 09:33:45;;;;;;;29.00;26.20;;;;;;;-3.93;90.69;97408.70;106585;1291;22091;-81
2022/12/13 09:36:19;;;;;;;24.20;22.00;;;;;;;-3.90;90.76;97414.38;106529;1305;22140;-83
2022/12/13 09:38:47;;;;;;;27.10;24.30;;;;;;;-3.93;89.16;97413.75;106666;1305;22176;-79
2022/12/13 09:41:38;;;;;;;29.60;26.70;;;;;;;-4.01;89.22;97415.38;106444;1312;22186;-83
2022/12/13 09:44:21;;;;;;;31.20;28.10;;;;;;;-4.05;89.68;97421.48;106301;1312;22220;-82
2022/12/13 09:47:03;;;;;;;28.90;25.90;;;;;;;-4.08;88.80;97421.77;106338;1312;22184;-81
2022/12/13 09:49:43;;;;;;;24.50;22.20;;;;;;;-4.09;89.23;97425.53;106317;1312;22717;-81
2022/12/13 09:52:23;;;;;;;26.80;24.10;;;;;;;-4.06;88.84;97431.98;106590;1305;22069;-82
2022/12/13 09:54:54;;;;;;;26.70;24.10;;;;;;;-4.07;88.50;97427.34;106484;1311;22212;-81
2022/12/13 09:57:28;;;;;;;27.50;24.80;;;;;;;-4.08;88.60;97429.77;106356;1306;22214;-82
2022/12/13 10:00:06;;;;;;;23.30;20.90;;;;;;;-4.11;88.33;97424.54;106162;1313;22164;-84
2022/12/13 10:02:46;;;;;;;24.20;21.70;;;;;;;-4.14;87.56;97418.46;106424;1312;22177;-84
2022/12/13 10:05:25;;;;;;;20.70;18.70;;;;;;;-4.15;87.27;97418.22;106481;1304;22231;-82
2022/12/13 10:08:08;;;;;;;24.60;22.00;;;;;;;-4.17;86.70;97419.36;106314;1312;22785;-89
2022/12/13 10:10:37;;;;;;;26.60;23.00;;;;;;;-4.21;86.67;97427.65;106775;1291;22929;-92
2022/12/13 10:13:36;;;;;;;26.10;23.10;;;;;;;-4.06;88.04;97424.04;106477;1312;21927;-86
2022/12/13 10:16:27;;;;;;;26.90;24.10;;;;;;;-3.76;87.37;97419.59;106794;1284;22182;-88
2022/12/13 10:19:35;;;;;;;24.80;22.40;;;;;;;-3.78;87.25;97418.71;106606;1307;22983;-89
2022/12/13 10:22:07;;;;;;;20.80;18.70;;;;;;;-3.77;86.59;97417.81;106685;1313;22217;-90
2022/12/13 10:24:51;;;;;;;19.30;17.60;;;;;;;-3.89;85.61;97416.72;106306;1306;22976;-89
2022/12/13 10:27:27;;;;;;;27.10;24.30;;;;;;;-4.02;85.84;97415.71;106465;1312;22186;-90
2022/12/13 10:29:58;;;;;;;25.20;22.70;;;;;;;-4.06;85.80;97418.50;106295;1313;22830;-90
2022/12/13 10:32:26;;;;;;;27.60;24.70;;;;;;;-4.12;86.63;97411.51;106529;1312;22193;-90
2022/12/13 10:34:54;;;;;;;28.20;25.50;;;;;;;-4.12;85.96;97417.83;106515;1312;22254;-89
2022/12/13 10:37:22;;;;;;;24.90;22.00;;;;;;;-4.18;86.21;97420.11;106753;1312;22242;-90
2022/12/13 10:39:50;;;;;;;26.60;24.00;;;;;;;-4.22;86.21;97420.42;106615;1313;22212;-91
2022/12/13 10:42:20;;;;;;;26.40;23.80;;;;;;;-4.22;86.39;97419.50;106302;1312;22225;-89
2022/12/13 10:45:15;;;;;;;25.30;22.90;;;;;;;-4.22;86.44;97416.95;106467;1313;23047;-93
2022/12/13 10:47:51;;;;;;;29.20;26.20;;;;;;;-4.22;86.68;97412.46;106382;1312;22315;-91
2022/12/13 10:50:28;;;;;;;29.90;27.20;;;;;;;-4.21;86.55;97415.40;106916;1303;22186;-92
2022/12/13 10:52:59;;;;;;;35.10;31.90;;;;;;;-4.23;86.42;97414.16;106623;1312;22178;-89
2022/12/13 10:55:33;;;;;;;36.80;33.20;;;;;;;-4.23;86.32;97414.13;106483;1313;22201;-89
2022/12/13 10:58:06;;;;;;;29.30;26.40;;;;;;;-4.20;86.79;97409.43;106515;1313;22199;-90
2022/12/13 11:00:45;;;;;;;28.50;25.70;;;;;;;-4.12;86.70;97413.25;106740;1300;22811;-91
2022/12/13 11:03:32;;;;;;;31.90;29.00;;;;;;;-4.13;86.34;97410.34;106574;1311;22219;-92
2022/12/13 11:06:12;;;;;;;32.20;29.10;;;;;;;-4.17;86.62;97403.58;106734;1308;22201;-93
2022/12/13 11:08:40;;;;;;;32.40;29.40;;;;;;;-4.17;86.64;97404.95;106689;1312;22209;-92
2022/12/13 11:11:11;;;;;;;31.00;28.10;;;;;;;-4.16;86.51;97401.23;106600;1312;22254;-89
2022/12/13 11:13:44;;;;;;;29.20;26.30;;;;;;;-4.12;86.62;97396.24;106914;1288;22039;-88
2022/12/13 11:16:32;;;;;;;32.10;29.10;;;;;;;-4.07;86.92;97402.27;106352;1304;21714;-91
2022/12/13 11:19:15;;;;;;;32.30;29.40;;;;;;;-4.07;86.54;97401.86;106597;1312;22226;-92
2022/12/13 11:21:48;;;;;;;35.10;31.90;;;;;;;-4.06;86.57;97397.16;106801;1305;22131;-91
2022/12/13 11:24:29;;;;;;;35.00;31.80;;;;;;;-3.98;86.64;97392.23;106661;1311;23037;-91
2022/12/13 11:27:01;;;;;;;37.10;33.20;;;;;;;-3.65;87.21;97388.67;106568;1312;22198;-87
2022/12/13 11:29:42;;;;;;;31.50;28.50;;;;;;;-3.11;87.36;97386.82;106612;1307;22208;-91
2022/12/13 11:32:29;;;;;;;30.00;27.30;;;;;;;-2.50;86.60;97382.54;106592;1310;22173;-94
2022/12/13 11:35:08;;;;;;;26.00;23.60;;;;;;;-1.66;84.64;97385.31;106597;1297;22181;-91
2022/12/13 11:38:08;;;;;;;29.60;26.90;;;;;;;-1.12;83.04;97382.89;106997;1288;22173;-91
2022/12/13 11:40:49;;;;;;;26.90;24.50;;;;;;;-1.54;81.49;97383.59;105905;1281;21922;31
2022/12/13 11:43:36;;;;;;;31.50;28.70;;;;;;;-1.83;82.64;97384.46;104963;1270;22232;31
2022/12/13 11:46:25;;;;;;;32.40;29.50;;;;;;;-1.34;81.22;97379.19;107704;1282;22267;31